createdAt,value
2023-04-16T00:02:04.896Z,9.42
2023-04-16T00:04:32.035Z,9.29
2023-04-16T00:06:59.099Z,9.27
2023-04-16T00:09:26.200Z,9.29
2023-04-16T00:11:53.148Z,9.28
2023-04-16T00:14:20.108Z,9.23
2023-04-16T00:16:48.471Z,9.19
2023-04-16T00:19:15.515Z,9.17
2023-04-16T00:21:42.630Z,9.16
2023-04-16T00:24:09.877Z,9.08
2023-04-16T00:26:36.872Z,9.05
2023-04-16T00:29:03.893Z,9.07
2023-04-16T00:31:32.916Z,9.01
2023-04-16T00:34:01.388Z,9.07
2023-04-16T00:36:28.714Z,9.14
2023-04-16T00:38:56.670Z,9.10
2023-04-16T00:41:23.748Z,9.00
2023-04-16T00:43:51.781Z,9.02
2023-04-16T00:46:19.646Z,8.99
2023-04-16T00:48:46.716Z,8.96
2023-04-16T00:51:15.530Z,8.88
2023-04-16T00:53:44.805Z,8.84
2023-04-16T00:56:12.418Z,8.82
2023-04-16T00:58:39.849Z,8.83
2023-04-16T01:01:06.999Z,8.82
2023-04-16T01:03:39.179Z,8.79
2023-04-16T01:06:06.857Z,8.79
2023-04-16T01:08:35.718Z,8.74
2023-04-16T01:11:02.815Z,8.59
2023-04-16T01:13:30.018Z,8.62
2023-04-16T01:15:56.977Z,8.52
2023-04-16T01:18:24.231Z,8.45
2023-04-16T01:20:52.851Z,8.47
2023-04-16T01:23:19.690Z,8.44
2023-04-16T01:25:46.795Z,8.33
2023-04-16T01:28:13.805Z,8.21
2023-04-16T01:30:41.460Z,8.06
2023-04-16T01:33:18.454Z,8.03
2023-04-16T01:35:45.391Z,8.03
2023-04-16T01:38:16.004Z,8.07
2023-04-16T01:40:43.180Z,8.03
2023-04-16T01:43:10.184Z,8.07
2023-04-16T01:45:37.298Z,8.03
2023-04-16T01:48:04.817Z,7.93
2023-04-16T01:50:32.194Z,7.87
2023-04-16T01:52:59.352Z,7.90
2023-04-16T01:55:27.738Z,7.94
2023-04-16T01:57:54.813Z,7.90
2023-04-16T02:00:26.241Z,7.96
2023-04-16T02:02:53.856Z,7.97
2023-04-16T02:05:26.461Z,7.92
2023-04-16T02:07:53.411Z,7.92
2023-04-16T02:10:20.802Z,7.93
2023-04-16T02:12:49.661Z,7.87
2023-04-16T02:15:16.651Z,7.84
2023-04-16T02:17:44.092Z,7.87
2023-04-16T02:20:12.031Z,7.88
2023-04-16T02:22:46.326Z,7.92
2023-04-16T02:25:16.547Z,7.91
2023-04-16T02:27:43.998Z,7.93
2023-04-16T02:30:34.976Z,7.94
2023-04-16T02:33:05.549Z,7.97
2023-04-16T02:35:32.862Z,7.98
2023-04-16T02:37:59.957Z,8.00
2023-04-16T02:40:27.120Z,8.07
2023-04-16T02:42:54.532Z,8.09
2023-04-16T02:45:21.704Z,8.12
2023-04-16T02:47:50.528Z,8.12
2023-04-16T02:50:18.073Z,8.02
2023-04-16T02:52:45.236Z,7.92
2023-04-16T02:55:12.366Z,7.84
2023-04-16T02:57:39.485Z,7.87
2023-04-16T03:00:08.134Z,7.86
2023-04-16T03:02:35.028Z,7.91
2023-04-16T03:05:04.008Z,7.94
2023-04-16T03:07:31.060Z,7.97
2023-04-16T03:09:58.217Z,8.01
2023-04-16T03:12:25.321Z,8.05
2023-04-16T03:14:55.213Z,8.11
2023-04-16T03:17:22.242Z,8.00
2023-04-16T03:19:50.863Z,8.02
2023-04-16T03:22:21.530Z,8.00
2023-04-16T03:24:48.538Z,8.02
2023-04-16T03:27:15.564Z,8.03
2023-04-16T03:29:42.632Z,8.10
2023-04-16T03:32:09.999Z,8.14
2023-04-16T03:34:37.344Z,8.06
2023-04-16T03:37:06.213Z,8.02
2023-04-16T03:39:35.028Z,8.09
2023-04-16T03:42:02.387Z,8.19
2023-04-16T03:44:29.801Z,8.21
2023-04-16T03:46:56.844Z,8.25
2023-04-16T03:49:24.200Z,8.32
2023-04-16T03:51:51.560Z,8.39
2023-04-16T03:54:20.140Z,8.40
2023-04-16T03:56:54.674Z,8.32
2023-04-16T03:59:21.664Z,8.35
2023-04-16T04:01:48.912Z,8.40
2023-04-16T04:04:16.312Z,8.41
2023-04-16T04:06:45.343Z,8.39
2023-04-16T04:09:12.588Z,8.44
2023-04-16T04:11:39.611Z,8.44
2023-04-16T04:14:08.227Z,8.42
2023-04-16T04:16:35.390Z,8.38
2023-04-16T04:19:02.373Z,8.34
2023-04-16T04:21:29.870Z,8.40
2023-04-16T04:23:57.555Z,8.44
2023-04-16T04:26:24.607Z,8.44
2023-04-16T04:28:51.696Z,8.45
2023-04-16T04:31:20.618Z,8.42
2023-04-16T04:33:47.645Z,8.46
2023-04-16T04:36:14.621Z,8.40
2023-04-16T04:38:42.354Z,8.40
2023-04-16T04:41:09.599Z,8.47
2023-04-16T04:43:38.322Z,8.56
2023-04-16T04:46:05.780Z,8.58
2023-04-16T04:48:34.300Z,8.58
2023-04-16T04:51:02.991Z,8.62
2023-04-16T04:53:31.745Z,8.69
2023-04-16T04:56:08.967Z,8.76
2023-04-16T04:58:39.626Z,8.74
2023-04-16T05:01:06.790Z,8.86
2023-04-16T05:03:35.268Z,8.96
2023-04-16T05:06:02.172Z,9.01
2023-04-16T05:08:29.161Z,9.09
2023-04-16T05:10:56.097Z,9.19
2023-04-16T05:13:23.152Z,9.27
2023-04-16T05:15:50.552Z,9.31
2023-04-16T05:18:17.512Z,9.41
2023-04-16T05:20:46.210Z,9.52
2023-04-16T05:23:13.216Z,9.62
2023-04-16T05:25:40.286Z,9.70
2023-04-16T05:28:07.244Z,9.80
2023-04-16T05:30:34.214Z,9.92
2023-04-16T05:33:01.249Z,10.02
2023-04-16T05:35:28.407Z,10.11
2023-04-16T05:37:56.827Z,10.17
2023-04-16T05:40:23.782Z,10.23
2023-04-16T05:42:50.874Z,10.31
2023-04-16T05:45:17.868Z,10.39
2023-04-16T05:47:45.158Z,10.49
2023-04-16T05:50:12.354Z,10.55
2023-04-16T05:52:39.376Z,10.63
2023-04-16T05:55:08.525Z,10.69
2023-04-16T05:57:35.509Z,10.76
2023-04-16T06:00:02.442Z,10.79
2023-04-16T06:02:39.163Z,10.88
2023-04-16T06:05:06.629Z,10.97
2023-04-16T06:07:33.678Z,11.10
2023-04-16T06:10:00.729Z,11.21
2023-04-16T06:12:29.154Z,11.32
2023-04-16T06:14:56.356Z,11.36
2023-04-16T06:17:23.513Z,11.38
2023-04-16T06:19:50.565Z,11.50
2023-04-16T06:22:17.576Z,11.54
2023-04-16T06:24:44.614Z,11.70
2023-04-16T06:27:12.014Z,11.85
2023-04-16T06:29:41.826Z,11.92
2023-04-16T06:32:09.141Z,11.97
2023-04-16T06:34:38.021Z,12.11
2023-04-16T06:37:05.237Z,12.25
2023-04-16T06:39:32.159Z,12.45
2023-04-16T06:41:59.198Z,12.59
2023-04-16T06:44:26.094Z,12.76
2023-04-16T06:46:54.503Z,12.83
2023-04-16T06:49:22.005Z,12.93
2023-04-16T06:51:49.088Z,13.02
2023-04-16T06:54:16.845Z,13.11
2023-04-16T06:56:43.890Z,13.17
2023-04-16T06:59:11.301Z,13.23
2023-04-16T07:01:38.479Z,13.28
2023-04-16T07:04:07.078Z,13.34
2023-04-16T07:06:34.638Z,13.39
2023-04-16T07:09:01.577Z,13.40
2023-04-16T07:11:28.735Z,13.41
2023-04-16T07:13:55.721Z,13.39
2023-04-16T07:16:22.802Z,13.48
2023-04-16T07:18:49.827Z,13.57
2023-04-16T07:21:18.251Z,13.69
2023-04-16T07:23:45.209Z,13.78
2023-04-16T07:26:12.221Z,13.87
2023-04-16T07:28:39.174Z,13.92
2023-04-16T07:31:06.400Z,14.01
2023-04-16T07:33:33.811Z,14.09
2023-04-16T07:36:00.909Z,14.21
2023-04-16T07:38:29.262Z,14.26
2023-04-16T07:40:56.986Z,14.36
2023-04-16T07:43:23.979Z,14.35
2023-04-16T07:45:51.084Z,14.33
2023-04-16T07:48:18.141Z,14.38
2023-04-16T07:50:45.359Z,14.49
2023-04-16T07:53:12.372Z,14.60
2023-04-16T07:55:41.093Z,14.73
2023-04-16T07:58:09.621Z,14.87
2023-04-16T08:00:36.650Z,14.97
2023-04-16T08:03:04.117Z,15.18
2023-04-16T08:05:31.169Z,15.37
2023-04-16T08:07:58.106Z,15.52
2023-04-16T08:10:25.162Z,15.65
2023-04-16T08:12:53.826Z,15.84
2023-04-16T08:15:20.802Z,15.98
2023-04-16T08:17:47.815Z,16.12
2023-04-16T08:20:17.590Z,15.91
2023-04-16T08:22:45.907Z,15.94
2023-04-16T08:25:12.845Z,16.03
2023-04-16T08:27:39.870Z,16.15
2023-04-16T08:30:08.665Z,16.18
2023-04-16T08:32:35.827Z,16.30
2023-04-16T08:35:02.967Z,16.44
2023-04-16T08:37:29.974Z,16.56
2023-04-16T08:39:56.911Z,16.67
2023-04-16T08:42:30.330Z,16.56
2023-04-16T08:45:06.705Z,16.41
2023-04-16T08:47:37.095Z,16.64
2023-04-16T08:50:05.775Z,16.77
2023-04-16T08:52:33.109Z,16.90
2023-04-16T08:55:05.444Z,16.91
2023-04-16T08:57:39.013Z,16.94
2023-04-16T09:00:08.981Z,16.96
2023-04-16T09:02:37.832Z,17.02
2023-04-16T09:05:07.874Z,17.16
2023-04-16T09:07:35.567Z,17.33
2023-04-16T09:10:03.402Z,17.32
2023-04-16T09:12:30.872Z,17.42
2023-04-16T09:14:59.830Z,17.67
2023-04-16T09:17:27.620Z,17.91
2023-04-16T09:19:56.036Z,18.10
2023-04-16T09:22:22.990Z,18.32
2023-04-16T09:24:50.074Z,18.52
2023-04-16T09:27:17.499Z,18.76
2023-04-16T09:29:44.604Z,18.94
2023-04-16T09:32:12.202Z,19.16
2023-04-16T09:37:42.740Z,19.38
2023-04-16T09:40:10.209Z,19.53
2023-04-16T09:42:37.506Z,19.51
2023-04-16T09:45:06.143Z,19.46
2023-04-16T09:47:41.686Z,19.48
2023-04-16T09:50:12.999Z,19.42
2023-04-16T09:52:40.318Z,19.22
2023-04-16T09:55:08.843Z,19.20
2023-04-16T09:57:37.925Z,19.19
2023-04-16T10:00:06.508Z,19.21
2023-04-16T10:02:34.722Z,19.20
2023-04-16T10:05:06.128Z,19.27
2023-04-16T10:07:34.693Z,19.12
2023-04-16T10:10:01.776Z,18.92
2023-04-16T10:12:30.830Z,18.91
2023-04-16T10:14:57.741Z,18.92
2023-04-16T10:17:25.253Z,19.04
2023-04-16T10:19:52.517Z,18.95
2023-04-16T10:22:19.473Z,19.08
2023-04-16T10:24:47.340Z,19.23
2023-04-16T10:27:14.042Z,19.31
2023-04-16T10:29:43.211Z,19.62
2023-04-16T10:32:10.439Z,19.93
2023-04-16T10:34:37.448Z,20.42
2023-04-16T10:37:04.388Z,20.69
2023-04-16T10:39:33.011Z,21.00
2023-04-16T10:42:11.217Z,21.11
2023-04-16T10:44:38.377Z,21.08
2023-04-16T10:47:12.852Z,21.30
2023-04-16T10:49:40.305Z,21.48
2023-04-16T10:52:12.356Z,21.69
2023-04-16T10:54:40.533Z,21.65
2023-04-16T10:57:09.226Z,21.59
2023-04-16T10:59:37.263Z,21.54
2023-04-16T11:02:08.090Z,21.33
2023-04-16T11:04:37.438Z,21.52
2023-04-16T11:07:16.640Z,21.63
2023-04-16T11:10:02.439Z,21.42
2023-04-16T11:12:34.356Z,21.13
2023-04-16T11:15:02.820Z,21.10
2023-04-16T11:17:33.045Z,21.13
2023-04-16T11:20:01.515Z,21.07
2023-04-16T11:22:28.494Z,21.01
2023-04-16T11:24:56.719Z,21.01
2023-04-16T11:27:24.358Z,20.99
2023-04-16T11:29:59.142Z,20.83
2023-04-16T11:32:26.287Z,20.29
2023-04-16T11:34:53.276Z,19.95
2023-04-16T11:37:32.273Z,19.75
2023-04-16T11:39:59.281Z,19.74
2023-04-16T11:42:28.505Z,19.36
2023-04-16T11:44:57.236Z,19.36
2023-04-16T11:47:24.664Z,19.33
2023-04-16T11:49:51.744Z,19.08
2023-04-16T11:52:30.813Z,18.80
2023-04-16T11:54:58.829Z,18.97
2023-04-16T11:57:26.879Z,19.08
2023-04-16T12:00:02.450Z,19.20
2023-04-16T12:02:52.380Z,19.11
2023-04-16T12:05:31.128Z,18.92
2023-04-16T12:08:00.933Z,18.72
2023-04-16T12:10:28.381Z,18.59
2023-04-16T12:12:56.036Z,18.79
2023-04-16T12:15:23.295Z,19.30
2023-04-16T12:17:51.575Z,19.71
2023-04-16T12:20:18.670Z,19.80
2023-04-16T12:22:47.816Z,19.83
2023-04-16T12:25:17.712Z,19.81
2023-04-16T12:27:53.053Z,19.78
2023-04-16T12:30:22.679Z,19.55
2023-04-16T12:32:51.885Z,19.26
2023-04-16T12:35:30.554Z,19.35
2023-04-16T12:37:57.728Z,19.41
2023-04-16T12:40:26.333Z,19.25
2023-04-16T12:42:53.329Z,19.12
2023-04-16T12:45:20.813Z,18.94
2023-04-16T12:47:47.801Z,18.85
2023-04-16T12:50:14.838Z,18.75
2023-04-16T12:53:00.249Z,18.68
2023-04-16T12:55:28.597Z,18.46
2023-04-16T12:57:55.766Z,18.33
2023-04-16T13:00:23.102Z,18.24
2023-04-16T13:02:50.189Z,18.18
2023-04-16T13:05:19.303Z,18.10
2023-04-16T13:07:46.531Z,18.01
2023-04-16T13:10:14.023Z,17.93
2023-04-16T13:12:42.505Z,17.82
2023-04-16T13:15:10.698Z,17.69
2023-04-16T13:17:37.730Z,17.54
2023-04-16T13:20:05.654Z,17.25
2023-04-16T13:22:32.655Z,16.83
2023-04-16T13:24:59.568Z,16.54
2023-04-16T13:27:26.725Z,16.12
2023-04-16T13:29:55.228Z,15.72
2023-04-16T13:32:22.249Z,15.29
2023-04-16T13:34:49.212Z,14.90
2023-04-16T13:37:16.180Z,14.59
2023-04-16T13:39:43.179Z,14.41
2023-04-16T13:42:10.295Z,14.18
2023-04-16T13:44:37.316Z,14.11
2023-04-16T13:47:05.788Z,13.95
2023-04-16T13:49:36.032Z,13.89
2023-04-16T13:52:03.324Z,13.95
2023-04-16T13:54:30.311Z,14.01
2023-04-16T13:56:57.329Z,14.08
2023-04-16T13:59:24.474Z,14.10
2023-04-16T14:01:51.713Z,14.18
2023-04-16T14:04:22.383Z,14.31
2023-04-16T14:06:49.988Z,14.41
2023-04-16T14:09:16.975Z,14.52
2023-04-16T14:11:44.015Z,14.56
2023-04-16T14:14:11.125Z,14.63
2023-04-16T14:16:38.199Z,14.70
2023-04-16T14:19:05.379Z,14.86
2023-04-16T14:21:33.705Z,14.99
2023-04-16T14:24:00.662Z,15.14
2023-04-16T14:26:27.638Z,15.27
2023-04-16T14:28:54.594Z,15.34
2023-04-16T14:31:21.757Z,15.19
2023-04-16T14:33:48.782Z,15.05
2023-04-16T14:36:15.787Z,15.02
2023-04-16T14:38:44.326Z,14.93
2023-04-16T14:41:12.659Z,14.89
2023-04-16T14:43:42.542Z,14.89
2023-04-16T14:46:09.906Z,14.86
2023-04-16T14:48:36.925Z,14.88
2023-04-16T14:51:03.910Z,14.97
2023-04-16T14:53:31.628Z,14.93
2023-04-16T14:56:00.098Z,14.92
2023-04-16T14:58:27.092Z,14.84
2023-04-16T15:00:54.207Z,14.74
2023-04-16T15:03:21.448Z,14.66
2023-04-16T15:05:55.324Z,14.70
2023-04-16T15:08:22.576Z,14.58
2023-04-16T15:10:49.869Z,14.53
2023-04-16T15:13:18.443Z,14.35
2023-04-16T15:15:45.501Z,14.20
2023-04-16T15:18:12.577Z,14.09
2023-04-16T15:20:39.473Z,14.00
2023-04-16T15:23:06.630Z,13.84
2023-04-16T15:25:34.111Z,13.92
2023-04-16T15:28:02.657Z,14.02
2023-04-16T15:30:31.315Z,14.13
2023-04-16T15:32:58.354Z,14.24
2023-04-16T15:35:25.513Z,14.28
2023-04-16T15:37:52.904Z,14.32
2023-04-16T15:40:20.651Z,14.32
2023-04-16T15:42:47.719Z,14.31
2023-04-16T15:45:14.715Z,14.25
2023-04-16T15:47:45.366Z,14.26
2023-04-16T15:50:12.511Z,14.28
2023-04-16T15:52:40.318Z,14.27
2023-04-16T15:55:07.676Z,14.29
2023-04-16T15:57:34.686Z,14.29
2023-04-16T16:00:06.376Z,14.21
2023-04-16T16:02:34.787Z,14.18
2023-04-16T16:05:04.682Z,14.15
2023-04-16T16:07:31.832Z,14.17
2023-04-16T16:09:58.925Z,14.17
2023-04-16T16:12:25.917Z,14.17
2023-04-16T16:14:52.857Z,14.15
2023-04-16T16:17:20.588Z,14.10
2023-04-16T16:19:47.661Z,14.02
2023-04-16T16:22:20.373Z,13.99
2023-04-16T16:24:49.123Z,13.91
2023-04-16T16:27:16.196Z,13.89
2023-04-16T16:29:43.444Z,13.86
2023-04-16T16:32:11.165Z,13.83
2023-04-16T16:34:38.125Z,13.83
2023-04-16T16:37:05.105Z,13.81
2023-04-16T16:39:33.408Z,13.69
2023-04-16T16:42:00.344Z,13.66
2023-04-16T16:44:27.605Z,13.61
2023-04-16T16:46:54.631Z,13.55
2023-04-16T16:49:21.575Z,13.52
2023-04-16T16:51:48.745Z,13.47
2023-04-16T16:54:15.805Z,13.44
2023-04-16T16:56:44.101Z,13.40
2023-04-16T16:59:11.581Z,13.35
2023-04-16T17:01:38.896Z,13.28
2023-04-16T17:04:06.161Z,13.20
2023-04-16T17:06:33.604Z,13.12
2023-04-16T17:09:01.001Z,13.03
2023-04-16T17:11:29.348Z,12.99
2023-04-16T17:13:57.913Z,12.85
2023-04-16T17:16:25.022Z,12.73
2023-04-16T17:18:52.190Z,12.72
2023-04-16T17:21:19.117Z,12.68
2023-04-16T17:23:46.097Z,12.63
2023-04-16T17:26:13.224Z,12.57
2023-04-16T17:28:40.124Z,12.51
2023-04-16T17:31:08.673Z,12.45
2023-04-16T17:33:35.856Z,12.43
2023-04-16T17:36:21.427Z,12.35
2023-04-16T17:38:48.775Z,12.26
2023-04-16T17:41:15.816Z,12.21
2023-04-16T17:43:43.535Z,12.20
2023-04-16T17:46:12.002Z,12.17
2023-04-16T17:48:39.076Z,12.05
2023-04-16T17:51:10.155Z,11.93
2023-04-16T17:53:37.192Z,11.85
2023-04-16T17:56:04.424Z,11.81
2023-04-16T17:58:35.059Z,11.76
2023-04-16T18:01:02.153Z,11.65
2023-04-16T18:03:31.484Z,11.57
2023-04-16T18:05:58.845Z,11.43
2023-04-16T18:08:26.273Z,11.34
2023-04-16T18:10:55.091Z,11.22
2023-04-16T18:13:22.147Z,11.13
2023-04-16T18:15:49.176Z,11.05
2023-04-16T18:18:16.296Z,10.98
2023-04-16T18:20:44.818Z,10.91
2023-04-16T18:23:11.828Z,10.96
2023-04-16T18:25:40.314Z,10.90
2023-04-16T18:28:07.522Z,10.86
2023-04-16T18:30:35.474Z,10.90
2023-04-16T18:35:32.280Z,11.04
2023-04-16T18:38:00.584Z,11.11
2023-04-16T18:40:29.306Z,11.18
2023-04-16T18:42:56.361Z,11.21
2023-04-16T18:45:23.428Z,11.23
2023-04-16T18:47:50.840Z,11.23
2023-04-16T18:50:17.984Z,11.27
2023-04-16T18:52:45.217Z,11.28
2023-04-16T18:55:13.540Z,11.25
2023-04-16T18:57:40.511Z,11.23
2023-04-16T19:00:12.762Z,11.27
2023-04-16T19:02:40.165Z,11.25
2023-04-16T19:05:08.641Z,11.24
2023-04-16T19:07:36.154Z,11.23
2023-04-16T19:10:03.138Z,11.18
2023-04-16T19:12:31.643Z,11.13
2023-04-16T19:14:59.070Z,11.08
2023-04-16T19:17:26.679Z,11.09
2023-04-16T19:19:53.750Z,11.05
2023-04-16T19:22:21.186Z,11.07
2023-04-16T19:24:48.227Z,11.17
2023-04-16T19:27:15.382Z,11.16
2023-04-16T19:29:43.761Z,11.20
2023-04-16T19:32:10.826Z,11.23
2023-04-16T19:34:38.771Z,11.23
2023-04-16T19:37:05.814Z,11.32
2023-04-16T19:39:33.323Z,11.35
2023-04-16T19:42:01.821Z,11.38
2023-04-16T19:44:28.822Z,11.38
2023-04-16T19:46:57.132Z,11.46
2023-04-16T19:49:34.174Z,11.48
2023-04-16T19:52:01.488Z,11.49
2023-04-16T19:54:28.909Z,11.46
2023-04-16T19:56:57.115Z,11.48
2023-04-16T19:59:25.049Z,11.39
2023-04-16T20:01:52.289Z,11.34
2023-04-16T20:04:20.790Z,11.30
2023-04-16T20:06:47.851Z,11.33
2023-04-16T20:09:14.784Z,11.34
2023-04-16T20:11:41.849Z,11.25
2023-04-16T20:14:09.095Z,11.23
2023-04-16T20:16:38.684Z,11.27
2023-04-16T20:19:08.696Z,11.27
2023-04-16T20:21:37.613Z,11.21
2023-04-16T20:24:04.973Z,11.20
2023-04-16T20:26:34.108Z,11.20
2023-04-16T20:29:01.203Z,11.19
2023-04-16T20:31:28.336Z,11.24
2023-04-16T20:34:13.999Z,11.30
2023-04-16T20:36:42.527Z,11.37
2023-04-16T20:39:10.793Z,11.39
2023-04-16T20:41:43.860Z,11.43
2023-04-16T20:44:18.794Z,11.38
2023-04-16T20:46:49.673Z,11.43
2023-04-16T20:49:18.481Z,11.45
2023-04-16T20:51:46.777Z,11.46
2023-04-16T20:54:13.535Z,11.41
2023-04-16T20:56:40.832Z,11.34
2023-04-16T20:59:07.861Z,11.30
2023-04-16T21:01:35.333Z,11.26
2023-04-16T21:04:02.597Z,11.26
2023-04-16T21:06:32.960Z,11.22
2023-04-16T21:09:01.332Z,11.15
2023-04-16T21:11:29.416Z,11.17
2023-04-16T21:13:56.526Z,11.24
2023-04-16T21:16:23.555Z,11.24
2023-04-16T21:18:50.780Z,11.34
2023-04-16T21:21:18.144Z,11.73
2023-04-16T21:23:45.342Z,11.88
2023-04-16T21:26:13.655Z,11.92
2023-04-16T21:28:40.654Z,11.87
2023-04-16T21:31:07.692Z,11.82
2023-04-16T21:33:34.731Z,11.77
2023-04-16T21:36:01.723Z,11.75
2023-04-16T21:38:28.667Z,11.69
2023-04-16T21:40:55.810Z,11.64
2023-04-16T21:43:24.260Z,11.67
2023-04-16T21:45:52.327Z,11.65
2023-04-16T21:48:19.419Z,11.64
2023-04-16T21:50:46.363Z,11.64
2023-04-16T21:53:13.354Z,11.65
2023-04-16T21:55:41.801Z,11.62
2023-04-16T21:58:08.741Z,11.59
2023-04-16T22:00:37.315Z,11.53
2023-04-16T22:03:04.542Z,11.41
2023-04-16T22:05:33.309Z,11.28
2023-04-16T22:08:02.616Z,11.18
2023-04-16T22:10:35.026Z,11.15
2023-04-16T22:13:02.137Z,11.14
2023-04-16T22:15:29.200Z,11.21
2023-04-16T22:17:57.721Z,11.28
2023-04-16T22:20:24.799Z,11.26
2023-04-16T22:22:53.542Z,11.24
2023-04-16T22:25:20.469Z,11.26
2023-04-16T22:27:47.626Z,11.30
2023-04-16T22:30:15.214Z,11.33
2023-04-16T22:32:42.225Z,11.31
2023-04-16T22:35:12.629Z,11.36
2023-04-16T22:37:39.620Z,11.36
2023-04-16T22:40:11.521Z,11.28
2023-04-16T22:42:38.558Z,11.16
2023-04-16T22:45:07.374Z,11.02
2023-04-16T22:47:34.502Z,10.79
2023-04-16T22:50:01.485Z,10.66
2023-04-16T22:52:30.014Z,10.58
2023-04-16T22:54:56.737Z,10.49
2023-04-16T22:57:26.894Z,10.39
2023-04-16T22:59:53.940Z,10.44
2023-04-16T23:02:21.273Z,10.45
2023-04-16T23:04:48.358Z,10.44
2023-04-16T23:07:15.703Z,10.48
2023-04-16T23:09:44.073Z,10.48
2023-04-16T23:12:11.112Z,10.55
2023-04-16T23:14:38.130Z,10.59
2023-04-16T23:17:05.169Z,10.66
2023-04-16T23:19:32.119Z,10.76
2023-04-16T23:21:59.201Z,10.78
2023-04-16T23:24:26.562Z,10.87
2023-04-16T23:26:54.900Z,10.85
2023-04-16T23:29:21.878Z,10.92
2023-04-16T23:31:48.994Z,10.96
2023-04-16T23:34:16.053Z,10.98
2023-04-16T23:36:43.089Z,10.99
2023-04-16T23:39:10.307Z,11.03
2023-04-16T23:41:37.428Z,11.02
2023-04-16T23:44:05.960Z,11.04
2023-04-16T23:46:33.019Z,11.09
2023-04-16T23:49:00.138Z,11.13
2023-04-16T23:51:27.156Z,11.15
2023-04-16T23:53:54.129Z,11.17
2023-04-16T23:56:21.237Z,11.13
2023-04-16T23:58:48.224Z,11.12
